createdAt,value
2022-08-14T00:00:08.774Z,27.62
2022-08-14T00:00:33.129Z,28.28
2022-08-14T00:00:58.209Z,27.76
2022-08-14T00:01:24.161Z,27.63
2022-08-14T00:01:54.478Z,27.08
2022-08-14T00:02:17.499Z,27.40
2022-08-14T00:02:40.219Z,26.92
2022-08-14T00:03:01.906Z,27.80
2022-08-14T00:03:29.259Z,27.24
2022-08-14T00:03:53.409Z,27.68
2022-08-14T00:04:34.208Z,27.63
2022-08-14T00:04:57.892Z,27.49
2022-08-14T00:05:23.442Z,27.19
2022-08-14T00:05:45.162Z,27.14
2022-08-14T00:06:25.724Z,27.30
2022-08-14T00:06:50.467Z,27.48
2022-08-14T00:07:13.803Z,27.52
2022-08-14T00:07:41.992Z,27.47
2022-08-14T00:08:04.410Z,27.59
2022-08-14T00:08:45.052Z,27.87
2022-08-14T00:09:08.098Z,28.44
2022-08-14T00:09:33.129Z,28.02
2022-08-14T00:10:01.674Z,27.77
2022-08-14T00:10:52.945Z,28.28
2022-08-14T00:11:15.036Z,27.98
2022-08-14T00:11:38.732Z,27.77
2022-08-14T00:12:23.854Z,28.29
2022-08-14T00:12:56.225Z,27.86
2022-08-14T00:13:21.014Z,27.98
2022-08-14T00:13:52.619Z,28.33
2022-08-14T00:14:17.210Z,27.88
2022-08-14T00:14:39.186Z,28.18
2022-08-14T00:15:03.139Z,28.43
2022-08-14T00:15:29.922Z,28.32
2022-08-14T00:16:00.328Z,28.07
2022-08-14T00:16:41.591Z,27.90
2022-08-14T00:17:05.597Z,28.22
2022-08-14T00:17:27.323Z,28.77
2022-08-14T00:17:53.636Z,28.47
2022-08-14T00:18:30.756Z,29.00
2022-08-14T00:19:18.630Z,28.61
2022-08-14T00:19:43.149Z,28.61
2022-08-14T00:20:10.295Z,28.58
2022-08-14T00:20:35.958Z,28.48
2022-08-14T00:21:03.477Z,28.74
2022-08-14T00:21:30.942Z,29.05
2022-08-14T00:21:52.934Z,28.78
2022-08-14T00:22:22.083Z,29.22
2022-08-14T00:23:11.835Z,28.45
2022-08-14T00:23:34.449Z,29.23
2022-08-14T00:23:56.882Z,29.48
2022-08-14T00:24:29.007Z,29.56
2022-08-14T00:24:52.733Z,29.56
2022-08-14T00:25:14.471Z,29.52
2022-08-14T00:25:42.074Z,29.13
2022-08-14T00:26:06.064Z,29.47
2022-08-14T00:26:28.594Z,28.97
2022-08-14T00:26:52.643Z,28.93
2022-08-14T00:27:16.619Z,29.56
2022-08-14T00:27:39.610Z,28.85
2022-08-14T00:28:02.813Z,29.33
2022-08-14T00:28:54.079Z,29.06
2022-08-14T00:29:18.548Z,29.42
2022-08-14T00:29:42.991Z,29.77
2022-08-14T00:30:07.439Z,29.43
2022-08-14T00:30:29.414Z,29.82
2022-08-14T00:30:52.053Z,29.43
2022-08-14T00:31:14.846Z,29.55
2022-08-14T00:31:44.277Z,29.67
2022-08-14T00:32:52.057Z,29.51
2022-08-14T00:33:01.882Z,29.35
2022-08-14T00:33:52.560Z,29.39
2022-08-14T00:34:36.990Z,29.67
2022-08-14T00:35:01.137Z,29.23
2022-08-14T00:35:22.822Z,29.14
2022-08-14T00:36:36.197Z,29.97
2022-08-14T00:36:49.512Z,29.73
2022-08-14T00:37:11.593Z,29.85
2022-08-14T00:37:35.793Z,30.08
2022-08-14T00:37:58.393Z,29.58
2022-08-14T00:38:21.792Z,29.95
2022-08-14T00:38:45.890Z,29.92
2022-08-14T00:39:09.852Z,29.60
2022-08-14T00:39:31.668Z,29.56
2022-08-14T00:39:53.494Z,29.63
2022-08-14T00:40:27.540Z,29.86
2022-08-14T00:40:55.440Z,29.96
2022-08-14T00:41:20.076Z,30.14
2022-08-14T00:41:42.512Z,29.77
2022-08-14T00:42:06.367Z,30.14
2022-08-14T00:43:11.724Z,30.09
2022-08-14T00:43:11.956Z,29.89
2022-08-14T00:43:34.380Z,30.36
2022-08-14T00:43:58.429Z,30.06
2022-08-14T00:44:32.268Z,30.02
2022-08-14T00:44:56.074Z,30.39
2022-08-14T00:45:18.606Z,30.27
2022-08-14T00:45:43.175Z,30.21
2022-08-14T00:46:32.622Z,30.03
2022-08-14T00:46:58.821Z,30.31
2022-08-14T00:47:24.622Z,30.33
2022-08-14T00:47:49.098Z,30.36
2022-08-14T00:48:12.064Z,30.51
2022-08-14T00:48:36.744Z,30.33
2022-08-14T00:49:00.781Z,30.59
2022-08-14T00:49:24.178Z,30.35
2022-08-14T00:49:47.043Z,29.73
2022-08-14T00:50:17.933Z,29.84
2022-08-14T00:50:39.810Z,29.99
2022-08-14T00:51:03.407Z,30.32
2022-08-14T00:51:25.672Z,30.05
2022-08-14T00:52:00.898Z,30.42
2022-08-14T00:52:23.389Z,30.66
2022-08-14T00:52:46.407Z,30.34
2022-08-14T00:53:13.132Z,30.79
2022-08-14T00:53:37.091Z,30.79
2022-08-14T00:54:00.669Z,30.57
2022-08-14T00:54:22.397Z,30.22
2022-08-14T00:54:45.632Z,30.39
2022-08-14T00:55:10.000Z,30.33
2022-08-14T00:55:36.824Z,30.44
2022-08-14T00:56:00.722Z,30.23
2022-08-14T00:56:31.390Z,30.45
2022-08-14T00:56:56.039Z,30.02
2022-08-14T00:57:18.761Z,30.24
2022-08-14T00:57:41.320Z,30.25
2022-08-14T00:58:27.827Z,30.35
2022-08-14T00:58:56.861Z,30.81
2022-08-14T00:59:23.215Z,30.91
2022-08-14T00:59:46.372Z,30.84
2022-08-14T01:00:34.233Z,30.59
2022-08-14T01:00:57.904Z,30.55
2022-08-14T01:01:19.787Z,30.38
2022-08-14T01:01:41.809Z,30.51
2022-08-14T01:02:05.767Z,30.24
2022-08-14T01:02:32.381Z,30.86
2022-08-14T01:02:54.161Z,30.72
2022-08-14T01:03:18.066Z,30.23
2022-08-14T01:03:42.401Z,30.07
2022-08-14T01:04:06.091Z,30.47
2022-08-14T01:04:37.780Z,30.56
2022-08-14T01:05:23.469Z,30.21
2022-08-14T01:05:51.783Z,30.49
2022-08-14T01:06:16.858Z,30.28
2022-08-14T01:06:40.953Z,30.28
2022-08-14T01:07:07.418Z,30.41
2022-08-14T01:07:29.834Z,30.54
2022-08-14T01:08:50.625Z,30.41
2022-08-14T01:08:59.196Z,30.14
2022-08-14T01:09:22.781Z,30.59
2022-08-14T01:09:45.511Z,30.20
2022-08-14T01:10:07.846Z,30.26
2022-08-14T01:10:45.664Z,30.46
2022-08-14T01:11:08.318Z,30.76
2022-08-14T01:11:36.260Z,30.49
2022-08-14T01:12:02.634Z,30.70
2022-08-14T01:12:30.037Z,30.39
2022-08-14T01:12:52.087Z,30.82
2022-08-14T01:13:21.143Z,30.90
2022-08-14T01:13:44.555Z,30.35
2022-08-14T01:14:25.922Z,30.78
2022-08-14T01:14:52.977Z,30.44
2022-08-14T01:15:16.728Z,30.56
2022-08-14T01:15:57.770Z,31.05
2022-08-14T01:16:25.494Z,31.00
2022-08-14T01:16:53.008Z,31.32
2022-08-14T01:17:17.047Z,30.83
2022-08-14T01:18:02.498Z,30.70
2022-08-14T01:18:56.671Z,30.97
2022-08-14T01:19:43.316Z,30.89
2022-08-14T01:20:27.302Z,30.69
2022-08-14T01:21:04.033Z,31.15
2022-08-14T01:21:31.986Z,30.83
2022-08-14T01:21:56.590Z,31.07
2022-08-14T01:22:18.666Z,31.23
2022-08-14T01:22:40.801Z,31.87
2022-08-14T01:23:08.305Z,31.89
2022-08-14T01:23:41.708Z,31.46
2022-08-14T01:24:09.897Z,31.22
2022-08-14T01:24:34.551Z,31.39
2022-08-14T01:24:57.900Z,31.52
2022-08-14T01:25:20.341Z,31.33
2022-08-14T01:25:44.202Z,31.58
2022-08-14T01:26:11.703Z,31.58
2022-08-14T01:26:38.665Z,31.79
2022-08-14T01:27:02.069Z,31.56
2022-08-14T01:27:24.670Z,31.76
2022-08-14T01:27:56.843Z,31.82
2022-08-14T01:28:46.408Z,31.34
2022-08-14T01:29:06.851Z,31.75
2022-08-14T01:30:01.292Z,31.58
2022-08-14T01:30:26.375Z,31.92
2022-08-14T01:30:49.886Z,31.67
2022-08-14T01:31:15.582Z,31.92
2022-08-14T01:31:41.619Z,31.84
2022-08-14T01:32:04.527Z,31.76
2022-08-14T01:32:37.716Z,31.70
2022-08-14T01:33:06.707Z,31.72
2022-08-14T01:33:30.370Z,31.72
2022-08-14T01:33:59.710Z,31.63
2022-08-14T01:35:18.200Z,31.31
2022-08-14T01:36:03.830Z,32.12
2022-08-14T01:36:07.461Z,31.73
2022-08-14T01:36:47.222Z,31.68
2022-08-14T01:37:10.763Z,31.68
2022-08-14T01:37:32.642Z,31.49
2022-08-14T01:37:58.453Z,31.53
2022-08-14T01:38:20.246Z,31.26
2022-08-14T01:38:48.875Z,31.82
2022-08-14T01:39:13.559Z,31.35
2022-08-14T01:39:37.865Z,31.51
2022-08-14T01:40:01.408Z,31.49
2022-08-14T01:40:25.400Z,31.69
2022-08-14T01:40:55.572Z,31.40
2022-08-14T01:41:23.088Z,31.36
2022-08-14T01:41:56.310Z,31.36
2022-08-14T01:42:31.523Z,31.52
2022-08-14T01:42:54.169Z,32.43
2022-08-14T01:43:18.891Z,32.56
2022-08-14T01:43:56.431Z,32.40
2022-08-14T01:44:33.314Z,32.09
2022-08-14T01:44:57.492Z,32.62
2022-08-14T01:45:25.544Z,32.38
2022-08-14T01:46:05.723Z,32.28
2022-08-14T01:46:33.437Z,32.64
2022-08-14T01:47:01.180Z,32.06
2022-08-14T01:47:23.682Z,32.00
2022-08-14T01:47:45.384Z,32.37
2022-08-14T01:48:07.408Z,32.49
2022-08-14T01:48:37.004Z,32.31
2022-08-14T01:48:59.844Z,32.22
2022-08-14T01:49:22.100Z,31.94
2022-08-14T01:49:46.570Z,32.02
2022-08-14T01:50:26.557Z,31.99
2022-08-14T01:50:48.387Z,32.18
2022-08-14T01:51:18.802Z,31.94
2022-08-14T01:51:44.394Z,32.13
2022-08-14T01:52:13.381Z,32.00
2022-08-14T01:52:58.429Z,32.36
2022-08-14T01:53:21.988Z,32.11
2022-08-14T01:53:54.719Z,32.34
2022-08-14T01:54:23.536Z,32.34
2022-08-14T01:54:59.615Z,31.98
2022-08-14T01:55:23.168Z,32.72
2022-08-14T01:55:45.555Z,32.65
2022-08-14T01:56:12.163Z,32.79
2022-08-14T01:56:44.466Z,32.92
2022-08-14T01:57:11.578Z,32.66
2022-08-14T01:58:00.219Z,32.85
2022-08-14T01:58:20.193Z,32.38
2022-08-14T01:58:57.493Z,32.69
2022-08-14T01:59:21.833Z,32.64
2022-08-14T01:59:44.629Z,32.58
2022-08-14T02:00:09.257Z,32.72
2022-08-14T02:00:36.329Z,32.67
2022-08-14T02:00:58.508Z,32.84
2022-08-14T02:01:20.751Z,32.38
2022-08-14T02:01:58.096Z,32.96
2022-08-14T02:02:20.723Z,32.97
2022-08-14T02:02:43.040Z,33.02
2022-08-14T02:03:08.343Z,32.91
2022-08-14T02:03:35.611Z,32.84
2022-08-14T02:04:03.636Z,32.70
2022-08-14T02:04:54.518Z,32.58
2022-08-14T02:05:13.316Z,32.47
2022-08-14T02:05:38.724Z,32.79
2022-08-14T02:06:32.696Z,32.78
2022-08-14T02:06:44.550Z,32.99
2022-08-14T02:07:15.693Z,32.98
2022-08-14T02:07:53.265Z,33.09
2022-08-14T02:08:22.506Z,32.76
2022-08-14T02:08:58.054Z,32.81
2022-08-14T02:09:22.612Z,32.89
2022-08-14T02:09:44.457Z,32.78
2022-08-14T02:10:17.970Z,33.18
2022-08-14T02:10:47.257Z,32.96
2022-08-14T02:11:18.667Z,32.88
2022-08-14T02:11:40.430Z,32.99
2022-08-14T02:12:05.682Z,33.24
2022-08-14T02:12:30.956Z,33.27
2022-08-14T02:12:56.904Z,33.45
2022-08-14T02:13:20.824Z,33.01
2022-08-14T02:13:46.471Z,32.98
2022-08-14T02:14:14.645Z,32.65
2022-08-14T02:15:00.660Z,33.02
2022-08-14T02:15:23.694Z,32.74
2022-08-14T02:15:48.422Z,33.05
2022-08-14T02:16:21.719Z,32.87
2022-08-14T02:16:48.077Z,32.60
2022-08-14T02:17:13.634Z,32.91
2022-08-14T02:17:37.019Z,32.79
2022-08-14T02:18:01.503Z,32.96
2022-08-14T02:18:24.289Z,32.59
2022-08-14T02:18:49.108Z,32.85
2022-08-14T02:19:15.076Z,32.79
2022-08-14T02:19:36.952Z,32.97
2022-08-14T02:19:58.819Z,32.87
2022-08-14T02:20:23.786Z,33.06
2022-08-14T02:20:47.753Z,33.20
2022-08-14T02:21:12.425Z,32.90
2022-08-14T02:21:43.245Z,33.06
2022-08-14T02:22:10.352Z,32.90
2022-08-14T02:22:33.153Z,32.86
2022-08-14T02:22:57.265Z,33.22
2022-08-14T02:23:30.492Z,33.19
2022-08-14T02:23:55.400Z,33.11
2022-08-14T02:24:39.697Z,33.22
2022-08-14T02:25:03.333Z,33.27
2022-08-14T02:25:29.901Z,33.33
2022-08-14T02:25:54.612Z,33.43
2022-08-14T02:26:29.021Z,33.08
2022-08-14T02:28:20.227Z,33.48
2022-08-14T02:28:25.075Z,33.26
2022-08-14T02:28:56.106Z,33.67
2022-08-14T02:29:05.115Z,33.60
2022-08-14T02:30:00.502Z,33.35
2022-08-14T02:30:15.120Z,33.37
2022-08-14T02:30:39.204Z,33.42
2022-08-14T02:31:02.139Z,33.48
2022-08-14T02:31:28.596Z,33.38
2022-08-14T02:32:04.930Z,33.73
2022-08-14T02:32:30.254Z,33.78
2022-08-14T02:32:58.941Z,33.98
2022-08-14T02:33:22.401Z,33.58
2022-08-14T02:33:44.717Z,33.51
2022-08-14T02:34:20.012Z,33.54
2022-08-14T02:34:45.444Z,33.64
2022-08-14T02:35:18.584Z,33.66
2022-08-14T02:35:41.497Z,33.73
2022-08-14T02:37:02.552Z,33.98
2022-08-14T02:37:04.221Z,33.44
2022-08-14T02:37:37.411Z,33.71
2022-08-14T02:38:11.674Z,33.86
2022-08-14T02:38:49.824Z,33.85
2022-08-14T02:39:13.782Z,34.16
2022-08-14T02:39:38.523Z,33.75
2022-08-14T02:40:00.590Z,34.21
2022-08-14T02:40:32.124Z,34.14
2022-08-14T02:40:56.666Z,33.99
2022-08-14T02:41:18.397Z,33.97
2022-08-14T02:41:52.437Z,33.84
2022-08-14T02:42:23.456Z,33.97
2022-08-14T02:42:59.303Z,33.86
2022-08-14T02:43:22.620Z,33.77
2022-08-14T02:43:48.161Z,33.77
2022-08-14T02:44:12.816Z,34.00
2022-08-14T02:44:39.770Z,33.88
2022-08-14T02:45:01.561Z,34.10
2022-08-14T02:45:24.042Z,34.32
2022-08-14T02:45:47.703Z,34.08
2022-08-14T02:46:11.339Z,33.92
2022-08-14T02:46:34.272Z,33.64
2022-08-14T02:47:02.920Z,33.85
2022-08-14T02:47:30.080Z,33.96
2022-08-14T02:47:53.739Z,34.10
2022-08-14T02:49:04.869Z,34.13
2022-08-14T02:49:06.213Z,34.21
2022-08-14T02:49:34.051Z,34.12
2022-08-14T02:49:57.045Z,34.32
2022-08-14T02:50:19.963Z,34.31
2022-08-14T02:50:51.521Z,34.56
2022-08-14T02:51:15.581Z,34.50
2022-08-14T02:51:38.711Z,34.35
2022-08-14T02:52:01.360Z,34.62
2022-08-14T02:52:57.460Z,34.53
2022-08-14T02:53:12.004Z,34.62
2022-08-14T02:53:39.790Z,34.67
2022-08-14T02:54:07.095Z,34.45
2022-08-14T02:54:28.801Z,34.22
2022-08-14T02:54:52.172Z,34.33
2022-08-14T02:55:15.602Z,34.37
2022-08-14T02:55:44.707Z,34.34
2022-08-14T02:56:29.701Z,34.57
2022-08-14T02:57:16.417Z,34.65
2022-08-14T02:57:39.806Z,34.31
2022-08-14T02:58:05.988Z,34.37
2022-08-14T02:58:30.312Z,34.49
2022-08-14T02:58:56.275Z,34.73
2022-08-14T02:59:24.738Z,34.67
2022-08-14T02:59:51.875Z,34.45
2022-08-14T03:00:18.903Z,34.46
2022-08-14T03:00:40.724Z,34.55
2022-08-14T03:01:02.443Z,34.75
2022-08-14T03:01:26.191Z,34.92
2022-08-14T03:01:54.818Z,34.86
2022-08-14T03:02:49.148Z,34.36
2022-08-14T03:02:59.439Z,34.46
2022-08-14T03:03:23.852Z,34.64
2022-08-14T03:03:49.680Z,34.65
2022-08-14T03:04:12.185Z,34.59
2022-08-14T03:04:34.569Z,34.69
2022-08-14T03:04:56.321Z,34.72
2022-08-14T03:05:20.414Z,34.54
2022-08-14T03:05:42.093Z,34.71
2022-08-14T03:06:04.976Z,34.90
2022-08-14T03:06:48.943Z,34.59
2022-08-14T03:07:10.420Z,34.46
2022-08-14T03:07:40.695Z,34.69
2022-08-14T03:08:09.081Z,34.64
2022-08-14T03:08:34.564Z,34.41
2022-08-14T03:08:56.393Z,34.52
2022-08-14T03:09:19.697Z,34.61
2022-08-14T03:10:25.348Z,34.61
2022-08-14T03:10:25.673Z,34.62
2022-08-14T03:10:50.314Z,34.80
2022-08-14T03:11:13.565Z,34.69
2022-08-14T03:11:36.128Z,34.66
2022-08-14T03:11:58.725Z,34.33
2022-08-14T03:12:32.402Z,34.51
2022-08-14T03:12:54.344Z,34.59
2022-08-14T03:13:21.135Z,34.34
2022-08-14T03:13:47.888Z,34.23
2022-08-14T03:14:11.888Z,34.27
2022-08-14T03:14:38.657Z,34.45
2022-08-14T03:15:03.561Z,34.23
2022-08-14T03:15:27.839Z,34.41
2022-08-14T03:15:55.639Z,34.14
2022-08-14T03:16:26.998Z,34.20
2022-08-14T03:16:50.985Z,34.13
2022-08-14T03:17:14.862Z,34.33
2022-08-14T03:17:41.165Z,34.16
2022-08-14T03:18:22.074Z,34.14
2022-08-14T03:19:00.242Z,34.26
2022-08-14T03:19:22.765Z,34.30
2022-08-14T03:19:44.654Z,34.32
2022-08-14T03:20:07.333Z,34.29
2022-08-14T03:20:33.969Z,34.74
2022-08-14T03:20:57.690Z,34.67
2022-08-14T03:21:20.613Z,34.79
2022-08-14T03:21:43.704Z,34.82
2022-08-14T03:22:05.480Z,34.69
2022-08-14T03:22:33.725Z,34.46
2022-08-14T03:22:59.341Z,34.83
2022-08-14T03:23:22.086Z,34.33
2022-08-14T03:23:48.166Z,34.37
2022-08-14T03:24:21.505Z,34.52
2022-08-14T03:24:45.535Z,34.45
2022-08-14T03:25:08.165Z,34.60
2022-08-14T03:25:33.582Z,34.43
2022-08-14T03:25:56.283Z,34.53
2022-08-14T03:26:29.218Z,34.57
2022-08-14T03:26:57.614Z,34.72
2022-08-14T03:27:19.528Z,34.61
2022-08-14T03:27:47.992Z,34.88
2022-08-14T03:28:32.907Z,34.71
2022-08-14T03:28:56.537Z,34.72
2022-08-14T03:29:24.650Z,34.75
2022-08-14T03:29:48.417Z,34.42
2022-08-14T03:30:14.505Z,34.37
2022-08-14T03:30:40.021Z,34.36
2022-08-14T03:31:02.815Z,34.51
2022-08-14T03:31:26.071Z,34.26
2022-08-14T03:31:53.292Z,34.32
2022-08-14T03:32:14.959Z,34.45
2022-08-14T03:32:38.788Z,34.63
2022-08-14T03:33:03.535Z,34.58
2022-08-14T03:33:27.562Z,34.51
2022-08-14T03:33:51.739Z,34.51
2022-08-14T03:34:24.998Z,34.20
2022-08-14T03:34:58.683Z,34.37
2022-08-14T03:35:21.138Z,34.60
2022-08-14T03:35:59.742Z,34.70
2022-08-14T03:37:37.678Z,34.68
2022-08-14T03:37:51.458Z,34.65
2022-08-14T03:39:10.667Z,34.51
2022-08-14T03:39:13.671Z,34.64
2022-08-14T03:39:27.610Z,34.73
2022-08-14T03:39:49.568Z,34.57
2022-08-14T03:40:18.280Z,34.49
2022-08-14T03:40:41.341Z,34.38
2022-08-14T03:41:03.037Z,34.51
2022-08-14T03:41:28.169Z,34.45
2022-08-14T03:42:01.521Z,34.35
2022-08-14T03:42:25.097Z,34.39
2022-08-14T03:42:58.936Z,34.34
2022-08-14T03:43:21.762Z,34.41
2022-08-14T03:43:43.882Z,34.21
2022-08-14T03:45:20.262Z,34.52
2022-08-14T03:45:26.102Z,34.47
2022-08-14T03:45:34.801Z,34.51
2022-08-14T03:45:56.946Z,34.53
2022-08-14T03:46:51.906Z,34.50
2022-08-14T03:47:04.009Z,34.48
2022-08-14T03:47:46.050Z,34.59
2022-08-14T03:48:26.779Z,34.63
2022-08-14T03:48:54.436Z,34.69
2022-08-14T03:49:24.407Z,34.84
2022-08-14T03:49:51.974Z,35.14
2022-08-14T03:50:14.105Z,34.80
2022-08-14T03:50:47.462Z,34.78
2022-08-14T03:51:13.272Z,34.92
2022-08-14T03:51:38.143Z,34.79
2022-08-14T03:52:04.663Z,34.88
2022-08-14T03:52:55.472Z,35.05
2022-08-14T03:53:20.505Z,35.24
2022-08-14T03:53:46.346Z,35.18
2022-08-14T03:54:09.299Z,35.07
2022-08-14T03:54:37.783Z,35.29
2022-08-14T03:55:03.735Z,35.38
2022-08-14T03:55:25.524Z,35.47
2022-08-14T03:55:48.398Z,35.42
2022-08-14T03:56:18.030Z,35.36
2022-08-14T03:56:45.107Z,35.22
2022-08-14T03:57:11.971Z,35.08
2022-08-14T03:57:37.247Z,35.11
2022-08-14T03:58:00.460Z,34.77
2022-08-14T03:58:35.104Z,34.91
2022-08-14T03:59:03.009Z,35.02
2022-08-14T03:59:28.503Z,35.06
2022-08-14T03:59:50.489Z,35.18
2022-08-14T04:00:43.530Z,35.13
2022-08-14T04:00:56.488Z,34.93
2022-08-14T04:01:21.312Z,35.21
2022-08-14T04:01:45.819Z,34.99
2022-08-14T04:02:32.492Z,35.20
2022-08-14T04:02:56.121Z,35.06
2022-08-14T04:03:24.345Z,35.24
2022-08-14T04:03:46.992Z,34.99
2022-08-14T04:04:09.913Z,35.14
2022-08-14T04:04:33.624Z,35.39
2022-08-14T04:04:55.548Z,35.31
2022-08-14T04:05:38.017Z,35.28
2022-08-14T04:06:08.454Z,35.46
2022-08-14T04:06:32.689Z,35.28
2022-08-14T04:07:04.479Z,34.66
2022-08-14T04:07:28.235Z,34.63
2022-08-14T04:08:00.106Z,34.26
2022-08-14T04:08:34.892Z,34.98
2022-08-14T04:08:58.093Z,35.03
2022-08-14T04:09:19.849Z,34.91
2022-08-14T04:09:41.724Z,34.94
2022-08-14T04:10:04.067Z,34.78
2022-08-14T04:10:32.647Z,34.75
2022-08-14T04:10:56.311Z,34.94
2022-08-14T04:11:19.423Z,35.50
2022-08-14T04:11:42.059Z,35.98
2022-08-14T04:12:06.131Z,36.14
2022-08-14T04:12:29.300Z,36.31
2022-08-14T04:12:51.671Z,36.41
2022-08-14T04:13:18.035Z,36.40
2022-08-14T04:13:42.687Z,36.08
2022-08-14T04:14:05.405Z,35.75
2022-08-14T04:14:29.359Z,35.49
2022-08-14T04:14:52.382Z,35.72
2022-08-14T04:15:19.937Z,35.87
2022-08-14T04:15:56.633Z,35.97
2022-08-14T04:16:25.172Z,35.25
2022-08-14T04:16:53.299Z,35.27
2022-08-14T04:17:14.921Z,35.36
2022-08-14T04:17:38.548Z,35.23
2022-08-14T04:18:06.399Z,35.46
2022-08-14T04:18:30.470Z,35.32
2022-08-14T04:18:55.914Z,35.54
2022-08-14T04:19:23.969Z,35.25
2022-08-14T04:19:47.335Z,35.04
2022-08-14T04:20:10.205Z,35.25
2022-08-14T04:20:31.981Z,35.26
2022-08-14T04:20:55.895Z,35.07
2022-08-14T04:21:18.373Z,35.36
2022-08-14T04:22:01.835Z,34.94
2022-08-14T04:22:23.629Z,35.09
2022-08-14T04:22:45.923Z,35.13
2022-08-14T04:23:10.509Z,35.04
2022-08-14T04:23:42.624Z,35.11
2022-08-14T04:24:06.905Z,34.99
2022-08-14T04:24:29.093Z,35.03
2022-08-14T04:24:53.077Z,35.07
2022-08-14T04:25:14.753Z,34.89
2022-08-14T04:25:37.351Z,35.12
2022-08-14T04:26:00.262Z,34.77
2022-08-14T04:26:27.171Z,34.88
2022-08-14T04:27:00.393Z,35.02
2022-08-14T04:27:23.606Z,35.14
2022-08-14T04:27:48.674Z,35.44
2022-08-14T04:29:06.865Z,36.86
2022-08-14T04:29:15.243Z,35.57
2022-08-14T04:29:38.617Z,35.58
2022-08-14T04:30:00.467Z,35.27
2022-08-14T04:30:32.692Z,35.37
2022-08-14T04:30:59.574Z,35.94
2022-08-14T04:31:24.881Z,35.59
2022-08-14T04:32:58.999Z,35.76
2022-08-14T04:33:10.842Z,35.95
2022-08-14T04:33:33.169Z,36.45
2022-08-14T04:33:55.484Z,36.16
2022-08-14T04:34:20.742Z,35.72
2022-08-14T04:34:52.232Z,35.94
2022-08-14T04:35:14.287Z,35.97
2022-08-14T04:35:56.237Z,36.45
2022-08-14T04:36:18.683Z,36.31
2022-08-14T04:36:55.211Z,36.33
2022-08-14T04:37:39.312Z,36.26
2022-08-14T04:38:36.705Z,36.23
2022-08-14T04:39:20.286Z,36.80
2022-08-14T04:40:00.208Z,36.97
2022-08-14T04:40:43.534Z,36.72
2022-08-14T04:41:23.952Z,36.58
2022-08-14T04:42:13.965Z,36.96
2022-08-14T04:42:54.873Z,37.51
2022-08-14T04:43:39.229Z,37.01
2022-08-14T04:44:02.437Z,36.36
2022-08-14T04:44:26.867Z,36.16
2022-08-14T04:45:00.974Z,36.00
2022-08-14T04:45:24.564Z,36.20
2022-08-14T04:45:51.490Z,36.06
2022-08-14T04:46:57.476Z,36.13
2022-08-14T04:47:16.654Z,36.40
2022-08-14T04:47:56.794Z,35.63
2022-08-14T04:48:39.793Z,35.72
2022-08-14T04:49:03.593Z,35.72
2022-08-14T04:49:29.797Z,36.16
2022-08-14T04:49:56.886Z,36.13
2022-08-14T04:50:23.174Z,36.34
2022-08-14T04:51:03.405Z,36.41
2022-08-14T04:51:26.596Z,36.18
2022-08-14T04:51:55.763Z,36.47
2022-08-14T04:52:23.394Z,36.17
2022-08-14T04:52:49.325Z,36.34
2022-08-14T04:53:23.218Z,36.44
2022-08-14T04:53:49.470Z,36.34
2022-08-14T04:54:13.450Z,36.82
2022-08-14T04:54:38.938Z,37.22
2022-08-14T04:55:01.264Z,37.03
2022-08-14T04:55:24.089Z,37.14
2022-08-14T04:55:51.595Z,37.01
2022-08-14T04:56:30.695Z,37.21
2022-08-14T04:56:56.160Z,36.56
2022-08-14T04:57:17.983Z,36.47
2022-08-14T04:57:40.967Z,36.61
2022-08-14T04:58:04.109Z,36.72
2022-08-14T04:58:33.818Z,36.55
2022-08-14T04:59:10.244Z,36.29
2022-08-14T04:59:32.613Z,36.41
2022-08-14T04:59:55.277Z,36.70
2022-08-14T05:00:18.264Z,36.74
2022-08-14T05:00:40.070Z,36.62
2022-08-14T05:01:12.981Z,36.50
2022-08-14T05:01:45.278Z,36.38
2022-08-14T05:02:11.606Z,36.26
2022-08-14T05:02:34.612Z,36.67
2022-08-14T05:02:57.026Z,36.85
2022-08-14T05:03:20.872Z,36.62
2022-08-14T05:03:45.405Z,36.48
2022-08-14T05:04:08.192Z,36.64
2022-08-14T05:04:30.316Z,36.77
2022-08-14T05:04:58.535Z,36.66
2022-08-14T05:05:21.911Z,36.41
2022-08-14T05:05:45.156Z,36.54
2022-08-14T05:06:35.040Z,36.77
2022-08-14T05:06:55.563Z,36.98
2022-08-14T05:07:17.318Z,36.58
2022-08-14T05:07:54.055Z,36.65
2022-08-14T05:08:31.691Z,36.53
2022-08-14T05:09:05.754Z,36.59
2022-08-14T05:09:30.696Z,36.70
2022-08-14T05:09:53.383Z,37.05
2022-08-14T05:10:16.508Z,37.21
2022-08-14T05:10:46.136Z,36.95
2022-08-14T05:11:13.561Z,36.80
2022-08-14T05:11:36.596Z,36.73
2022-08-14T05:12:08.575Z,36.75
2022-08-14T05:13:10.758Z,36.87
2022-08-14T05:13:31.855Z,37.02
2022-08-14T05:14:17.063Z,36.99
2022-08-14T05:14:55.208Z,36.88
2022-08-14T05:15:17.444Z,37.09
2022-08-14T05:15:42.573Z,37.39
2022-08-14T05:16:07.558Z,36.94
2022-08-14T05:16:31.712Z,36.99
2022-08-14T05:16:53.574Z,36.99
2022-08-14T05:17:15.938Z,37.00
2022-08-14T05:17:44.303Z,37.36
2022-08-14T05:19:16.981Z,37.11
2022-08-14T05:19:17.714Z,37.21
2022-08-14T05:21:04.834Z,37.43
2022-08-14T05:21:54.426Z,37.04
2022-08-14T05:22:00.029Z,37.15
2022-08-14T05:22:01.178Z,37.00
2022-08-14T05:22:38.395Z,37.07
2022-08-14T05:23:02.082Z,37.48
2022-08-14T05:23:26.854Z,37.22
2022-08-14T05:23:50.128Z,37.29
2022-08-14T05:24:17.827Z,37.16
2022-08-14T05:24:42.103Z,37.10
2022-08-14T05:25:06.297Z,37.03
2022-08-14T05:25:34.338Z,37.04
2022-08-14T05:26:00.432Z,37.03
2022-08-14T05:26:22.345Z,37.37
2022-08-14T05:26:44.764Z,37.39
2022-08-14T05:27:09.449Z,37.22
2022-08-14T05:27:34.900Z,37.05
2022-08-14T05:28:00.429Z,36.99
2022-08-14T05:28:24.332Z,36.65
2022-08-14T05:28:46.330Z,36.77
2022-08-14T05:29:11.912Z,37.05
2022-08-14T05:29:35.205Z,37.03
2022-08-14T05:29:57.466Z,36.95
2022-08-14T05:30:19.664Z,37.48
2022-08-14T05:30:43.605Z,37.32
2022-08-14T05:31:07.876Z,37.21
2022-08-14T05:31:30.275Z,36.79
2022-08-14T05:32:06.324Z,37.08
2022-08-14T05:32:28.901Z,36.76
2022-08-14T05:32:50.588Z,36.54
2022-08-14T05:33:14.540Z,36.75
2022-08-14T05:33:37.660Z,36.54
2022-08-14T05:34:01.151Z,36.42
2022-08-14T05:34:23.792Z,36.91
2022-08-14T05:34:50.665Z,36.88
2022-08-14T05:35:13.309Z,36.84
2022-08-14T05:35:37.809Z,37.01
2022-08-14T05:36:07.526Z,36.87
2022-08-14T05:36:38.632Z,37.05
2022-08-14T05:37:03.951Z,37.02
2022-08-14T05:37:30.368Z,36.97
2022-08-14T05:37:52.050Z,37.09
2022-08-14T05:38:30.814Z,37.19
2022-08-14T05:38:53.939Z,36.87
2022-08-14T05:39:17.013Z,36.88
2022-08-14T05:39:39.556Z,37.05
2022-08-14T05:40:05.895Z,36.34
2022-08-14T05:40:28.142Z,36.46
2022-08-14T05:40:50.044Z,36.38
2022-08-14T05:41:13.959Z,36.57
2022-08-14T05:41:52.914Z,36.66
2022-08-14T05:42:26.633Z,36.85
2022-08-14T05:42:52.789Z,37.09
2022-08-14T05:43:16.022Z,36.88
2022-08-14T05:43:41.183Z,37.29
2022-08-14T05:44:05.022Z,37.37
2022-08-14T05:44:30.700Z,36.77
2022-08-14T05:44:55.362Z,36.84
2022-08-14T05:45:18.984Z,36.85
2022-08-14T05:45:42.161Z,37.09
2022-08-14T05:46:03.936Z,37.14
2022-08-14T05:46:27.515Z,37.52
2022-08-14T05:46:49.913Z,37.47
2022-08-14T05:47:11.639Z,37.53
2022-08-14T05:47:40.680Z,37.27
2022-08-14T05:48:03.930Z,37.28
2022-08-14T05:48:33.648Z,37.44
2022-08-14T05:48:59.109Z,37.39
2022-08-14T05:49:20.709Z,37.27
2022-08-14T05:49:42.388Z,37.18
2022-08-14T05:50:04.578Z,36.97
2022-08-14T05:50:29.158Z,37.04
2022-08-14T05:50:52.189Z,37.35
2022-08-14T05:51:15.335Z,36.56
2022-08-14T05:51:37.123Z,37.18
2022-08-14T05:52:01.781Z,36.71
2022-08-14T05:52:26.457Z,36.87
2022-08-14T05:53:01.220Z,37.05
2022-08-14T05:53:24.034Z,36.91
2022-08-14T05:54:01.496Z,37.03
2022-08-14T05:54:28.408Z,37.00
2022-08-14T05:54:58.127Z,36.89
2022-08-14T05:55:23.300Z,37.07
2022-08-14T05:55:45.081Z,37.15
2022-08-14T05:56:07.308Z,36.87
2022-08-14T05:56:29.237Z,36.89
2022-08-14T05:56:50.889Z,36.93
2022-08-14T05:57:14.872Z,36.94
2022-08-14T05:57:48.936Z,36.94
2022-08-14T05:58:10.668Z,36.60
2022-08-14T05:58:40.894Z,36.72
2022-08-14T05:59:03.341Z,36.83
2022-08-14T05:59:36.446Z,36.95
2022-08-14T05:59:59.701Z,37.21
2022-08-14T06:00:24.910Z,37.26
2022-08-14T06:00:51.751Z,37.14
2022-08-14T06:01:15.733Z,37.07
2022-08-14T06:01:37.433Z,37.15
2022-08-14T06:01:59.160Z,37.15